sensor_id;sensor_type;location;lat;lon;timestamp;pressure;altitude;pressure_sealevel;temperature;humidity
73674;BME280;61975;48.660;10.164;2023-06-04T00:02:14;95622.38;;;15.27;58.26
73674;BME280;61975;48.660;10.164;2023-06-04T00:04:40;95622.44;;;15.23;58.22
73674;BME280;61975;48.660;10.164;2023-06-04T00:07:05;95619.25;;;15.21;58.04
73674;BME280;61975;48.660;10.164;2023-06-04T00:09:31;95624.06;;;15.17;58.47
73674;BME280;61975;48.660;10.164;2023-06-04T00:11:56;95627.34;;;15.05;59.26
73674;BME280;61975;48.660;10.164;2023-06-04T00:14:23;95625.78;;;15.04;59.12
73674;BME280;61975;48.660;10.164;2023-06-04T00:16:49;95623.38;;;15.03;59.16
73674;BME280;61975;48.660;10.164;2023-06-04T00:19:14;95620.63;;;14.99;59.26
73674;BME280;61975;48.660;10.164;2023-06-04T00:21:40;95623.44;;;14.96;59.32
73674;BME280;61975;48.660;10.164;2023-06-04T00:24:05;95619.06;;;14.95;59.71
73674;BME280;61975;48.660;10.164;2023-06-04T00:26:31;95619.47;;;14.93;59.89
73674;BME280;61975;48.660;10.164;2023-06-04T00:28:56;95620.31;;;14.90;59.97
73674;BME280;61975;48.660;10.164;2023-06-04T00:31:21;95619.56;;;14.83;59.66
73674;BME280;61975;48.660;10.164;2023-06-04T00:33:48;95620.81;;;14.78;59.81
73674;BME280;61975;48.660;10.164;2023-06-04T00:36:13;95618.44;;;14.73;59.78
73674;BME280;61975;48.660;10.164;2023-06-04T00:38:39;95620.47;;;14.69;60.27
73674;BME280;61975;48.660;10.164;2023-06-04T00:41:04;95617.66;;;14.69;60.38
73674;BME280;61975;48.660;10.164;2023-06-04T00:43:30;95621.28;;;14.66;60.95
73674;BME280;61975;48.660;10.164;2023-06-04T00:45:57;95610.94;;;14.63;61.22
73674;BME280;61975;48.660;10.164;2023-06-04T00:48:23;95614.13;;;14.62;61.12
73674;BME280;61975;48.660;10.164;2023-06-04T00:50:48;95621.38;;;14.56;61.28
73674;BME280;61975;48.660;10.164;2023-06-04T00:53:14;95617.00;;;14.51;61.78
73674;BME280;61975;48.660;10.164;2023-06-04T00:55:40;95631.75;;;14.52;62.05
73674;BME280;61975;48.660;10.164;2023-06-04T00:58:06;95627.41;;;14.47;61.69
73674;BME280;61975;48.660;10.164;2023-06-04T01:00:33;95633.41;;;14.46;61.88
73674;BME280;61975;48.660;10.164;2023-06-04T01:03:00;95631.78;;;14.45;62.69
73674;BME280;61975;48.660;10.164;2023-06-04T01:08:03;95624.66;;;14.40;62.70
73674;BME280;61975;48.660;10.164;2023-06-04T01:10:30;95631.03;;;14.41;61.97
73674;BME280;61975;48.660;10.164;2023-06-04T01:12:56;95627.06;;;14.38;62.79
73674;BME280;61975;48.660;10.164;2023-06-04T01:15:21;95642.63;;;14.36;62.17
73674;BME280;61975;48.660;10.164;2023-06-04T01:17:49;95627.50;;;14.33;62.31
73674;BME280;61975;48.660;10.164;2023-06-04T01:20:36;95636.69;;;14.30;62.79
73674;BME280;61975;48.660;10.164;2023-06-04T01:23:14;95645.06;;;14.30;62.07
73674;BME280;61975;48.660;10.164;2023-06-04T01:25:41;95634.31;;;14.25;62.26
73674;BME280;61975;48.660;10.164;2023-06-04T01:28:10;95636.72;;;14.23;62.16
73674;BME280;61975;48.660;10.164;2023-06-04T01:30:38;95627.09;;;14.21;62.27
73674;BME280;61975;48.660;10.164;2023-06-04T01:33:12;95631.91;;;14.17;61.99
73674;BME280;61975;48.660;10.164;2023-06-04T01:35:38;95635.13;;;14.15;61.84
73674;BME280;61975;48.660;10.164;2023-06-04T01:38:04;95640.72;;;14.12;61.93
73674;BME280;61975;48.660;10.164;2023-06-04T01:40:30;95634.34;;;14.11;61.55
73674;BME280;61975;48.660;10.164;2023-06-04T01:42:55;95635.56;;;14.07;62.22
73674;BME280;61975;48.660;10.164;2023-06-04T01:45:25;95633.16;;;14.05;62.36
73674;BME280;61975;48.660;10.164;2023-06-04T01:47:51;95634.81;;;13.99;61.51
73674;BME280;61975;48.660;10.164;2023-06-04T01:50:16;95635.22;;;13.98;60.95
73674;BME280;61975;48.660;10.164;2023-06-04T01:52:42;95633.22;;;13.95;61.08
73674;BME280;61975;48.660;10.164;2023-06-04T01:55:09;95632.81;;;13.93;60.77
73674;BME280;61975;48.660;10.164;2023-06-04T01:57:37;95631.66;;;13.90;61.04
73674;BME280;61975;48.660;10.164;2023-06-04T02:00:04;95629.66;;;13.87;61.57
73674;BME280;61975;48.660;10.164;2023-06-04T02:02:33;95637.66;;;13.81;61.72
73674;BME280;61975;48.660;10.164;2023-06-04T02:04:58;95629.31;;;13.78;60.99
73674;BME280;61975;48.660;10.164;2023-06-04T02:07:23;95633.72;;;13.72;61.61
73674;BME280;61975;48.660;10.164;2023-06-04T02:09:51;95620.97;;;13.71;61.92
73674;BME280;61975;48.660;10.164;2023-06-04T02:12:17;95625.34;;;13.68;62.24
73674;BME280;61975;48.660;10.164;2023-06-04T02:14:43;95618.97;;;13.68;62.53
73674;BME280;61975;48.660;10.164;2023-06-04T02:17:10;95615.78;;;13.66;61.56
73674;BME280;61975;48.660;10.164;2023-06-04T02:19:42;95623.78;;;13.60;61.71
73674;BME280;61975;48.660;10.164;2023-06-04T02:22:13;95627.78;;;13.56;62.46
73674;BME280;61975;48.660;10.164;2023-06-04T02:24:40;95627.78;;;13.52;62.12
73674;BME280;61975;48.660;10.164;2023-06-04T02:27:08;95623.41;;;13.48;63.00
73674;BME280;61975;48.660;10.164;2023-06-04T02:29:33;95621.84;;;13.40;63.26
73674;BME280;61975;48.660;10.164;2023-06-04T02:31:59;95622.66;;;13.37;63.74
73674;BME280;61975;48.660;10.164;2023-06-04T02:34:25;95623.81;;;13.36;63.48
73674;BME280;61975;48.660;10.164;2023-06-04T02:36:50;95631.03;;;13.30;63.63
73674;BME280;61975;48.660;10.164;2023-06-04T02:39:19;95635.00;;;13.32;63.88
73674;BME280;61975;48.660;10.164;2023-06-04T02:41:45;95624.66;;;13.29;63.58
73674;BME280;61975;48.660;10.164;2023-06-04T02:44:10;95625.44;;;13.26;63.89
73674;BME280;61975;48.660;10.164;2023-06-04T02:46:36;95613.09;;;13.20;63.83
73674;BME280;61975;48.660;10.164;2023-06-04T02:49:02;95616.28;;;13.22;63.71
73674;BME280;61975;48.660;10.164;2023-06-04T02:51:28;95627.47;;;13.19;64.24
73674;BME280;61975;48.660;10.164;2023-06-04T02:53:54;95619.50;;;13.14;63.85
73674;BME280;61975;48.660;10.164;2023-06-04T02:56:20;95618.69;;;13.13;63.99
73674;BME280;61975;48.660;10.164;2023-06-04T02:58:55;95621.09;;;13.11;64.40
73674;BME280;61975;48.660;10.164;2023-06-04T03:01:22;95625.88;;;13.11;64.37
73674;BME280;61975;48.660;10.164;2023-06-04T03:03:48;95626.66;;;13.08;64.47
73674;BME280;61975;48.660;10.164;2023-06-04T03:06:14;95631.44;;;13.04;64.76
73674;BME280;61975;48.660;10.164;2023-06-04T03:08:40;95636.22;;;13.00;64.45
73674;BME280;61975;48.660;10.164;2023-06-04T03:11:06;95638.56;;;12.98;64.19
73674;BME280;61975;48.660;10.164;2023-06-04T03:13:31;95638.59;;;12.94;64.95
73674;BME280;61975;48.660;10.164;2023-06-04T03:15:57;95642.16;;;12.91;64.49
73674;BME280;61975;48.660;10.164;2023-06-04T03:18:26;95642.97;;;12.88;64.66
73674;BME280;61975;48.660;10.164;2023-06-04T03:20:51;95646.13;;;12.87;64.78
73674;BME280;61975;48.660;10.164;2023-06-04T03:23:18;95652.91;;;12.86;65.37
73674;BME280;61975;48.660;10.164;2023-06-04T03:25:43;95652.91;;;12.86;65.18
73674;BME280;61975;48.660;10.164;2023-06-04T03:28:09;95655.28;;;12.84;65.02
73674;BME280;61975;48.660;10.164;2023-06-04T03:30:34;95654.50;;;12.83;64.47
73674;BME280;61975;48.660;10.164;2023-06-04T03:33:00;95664.84;;;12.83;64.32
73674;BME280;61975;48.660;10.164;2023-06-04T03:35:25;95652.94;;;12.82;64.58
73674;BME280;61975;48.660;10.164;2023-06-04T03:37:50;95653.31;;;12.74;64.46
73674;BME280;61975;48.660;10.164;2023-06-04T03:40:16;95663.25;;;12.75;64.26
73674;BME280;61975;48.660;10.164;2023-06-04T03:42:41;95667.25;;;12.74;63.95
73674;BME280;61975;48.660;10.164;2023-06-04T03:45:07;95661.25;;;12.75;64.40
73674;BME280;61975;48.660;10.164;2023-06-04T03:47:33;95656.09;;;12.77;63.70
73674;BME280;61975;48.660;10.164;2023-06-04T03:49:58;95661.28;;;12.79;63.84
73674;BME280;61975;48.660;10.164;2023-06-04T03:52:24;95652.91;;;12.79;63.93
73674;BME280;61975;48.660;10.164;2023-06-04T03:54:49;95665.25;;;12.78;63.98
73674;BME280;61975;48.660;10.164;2023-06-04T03:57:14;95666.44;;;12.77;63.77
73674;BME280;61975;48.660;10.164;2023-06-04T03:59:40;95668.84;;;12.75;63.54
73674;BME280;61975;48.660;10.164;2023-06-04T04:02:05;95664.03;;;12.75;63.33
73674;BME280;61975;48.660;10.164;2023-06-04T04:04:31;95663.25;;;12.75;63.75
73674;BME280;61975;48.660;10.164;2023-06-04T04:06:58;95662.84;;;12.73;63.28
73674;BME280;61975;48.660;10.164;2023-06-04T04:09:25;95675.19;;;12.75;63.58
73674;BME280;61975;48.660;10.164;2023-06-04T04:11:51;95669.63;;;12.79;63.46
73674;BME280;61975;48.660;10.164;2023-06-04T04:14:16;95668.44;;;12.80;62.81
73674;BME280;61975;48.660;10.164;2023-06-04T04:16:42;95671.63;;;12.82;62.90
73674;BME280;61975;48.660;10.164;2023-06-04T04:19:07;95665.66;;;12.83;62.35
73674;BME280;61975;48.660;10.164;2023-06-04T04:21:36;95670.03;;;12.84;62.07
73674;BME280;61975;48.660;10.164;2023-06-04T04:24:03;95682.34;;;12.87;62.01
73674;BME280;61975;48.660;10.164;2023-06-04T04:26:28;95669.66;;;12.89;61.73
73674;BME280;61975;48.660;10.164;2023-06-04T04:28:54;95673.63;;;12.92;61.82
73674;BME280;61975;48.660;10.164;2023-06-04T04:31:27;95679.97;;;12.92;61.71
73674;BME280;61975;48.660;10.164;2023-06-04T04:33:55;95674.41;;;12.96;61.66
73674;BME280;61975;48.660;10.164;2023-06-04T04:36:21;95676.44;;;12.99;61.31
73674;BME280;61975;48.660;10.164;2023-06-04T04:38:46;95684.41;;;13.04;61.33
73674;BME280;61975;48.660;10.164;2023-06-04T04:41:20;95689.59;;;13.09;61.75
73674;BME280;61975;48.660;10.164;2023-06-04T04:43:47;95689.19;;;13.14;61.88
73674;BME280;61975;48.660;10.164;2023-06-04T04:46:13;95690.75;;;13.15;61.79
73674;BME280;61975;48.660;10.164;2023-06-04T04:48:38;95689.19;;;13.17;61.61
73674;BME280;61975;48.660;10.164;2023-06-04T04:51:05;95695.56;;;13.21;61.18
73674;BME280;61975;48.660;10.164;2023-06-04T04:53:31;95693.16;;;13.27;61.10
73674;BME280;61975;48.660;10.164;2023-06-04T04:55:57;95695.53;;;13.32;60.82
73674;BME280;61975;48.660;10.164;2023-06-04T04:58:22;95700.31;;;13.35;60.83
73674;BME280;61975;48.660;10.164;2023-06-04T05:00:48;95698.31;;;13.32;61.03
73674;BME280;61975;48.660;10.164;2023-06-04T05:03:13;95702.31;;;13.41;60.66
73674;BME280;61975;48.660;10.164;2023-06-04T05:05:39;95699.13;;;13.50;60.43
73674;BME280;61975;48.660;10.164;2023-06-04T05:08:04;95709.84;;;13.55;59.63
73674;BME280;61975;48.660;10.164;2023-06-04T05:10:30;95706.28;;;13.58;60.33
73674;BME280;61975;48.660;10.164;2023-06-04T05:12:57;95716.25;;;13.55;60.08
73674;BME280;61975;48.660;10.164;2023-06-04T05:15:25;95714.22;;;13.56;59.83
73674;BME280;61975;48.660;10.164;2023-06-04T05:17:51;95723.38;;;13.67;58.61
73674;BME280;61975;48.660;10.164;2023-06-04T05:20:18;95721.38;;;13.78;58.96
73674;BME280;61975;48.660;10.164;2023-06-04T05:22:44;95726.56;;;13.87;58.98
73674;BME280;61975;48.660;10.164;2023-06-04T05:25:11;95723.72;;;13.97;58.85
73674;BME280;61975;48.660;10.164;2023-06-04T05:27:37;95722.91;;;14.07;59.06
73674;BME280;61975;48.660;10.164;2023-06-04T05:30:08;95719.69;;;14.16;58.98
73674;BME280;61975;48.660;10.164;2023-06-04T05:32:33;95718.88;;;14.26;59.41
73674;BME280;61975;48.660;10.164;2023-06-04T05:34:59;95724.47;;;14.26;57.55
73674;BME280;61975;48.660;10.164;2023-06-04T05:37:25;95729.22;;;14.36;56.94
73674;BME280;61975;48.660;10.164;2023-06-04T05:39:55;95730.75;;;14.47;56.29
73674;BME280;61975;48.660;10.164;2023-06-04T05:42:22;95730.72;;;14.54;56.85
73674;BME280;61975;48.660;10.164;2023-06-04T05:44:47;95735.06;;;14.62;56.62
73674;BME280;61975;48.660;10.164;2023-06-04T05:47:13;95735.03;;;14.69;56.22
73674;BME280;61975;48.660;10.164;2023-06-04T05:49:38;95734.28;;;14.55;56.80
73674;BME280;61975;48.660;10.164;2023-06-04T05:52:04;95727.91;;;14.61;56.32
73674;BME280;61975;48.660;10.164;2023-06-04T05:54:30;95736.56;;;14.77;55.72
73674;BME280;61975;48.660;10.164;2023-06-04T05:56:56;95738.91;;;14.89;55.73
73674;BME280;61975;48.660;10.164;2023-06-04T05:59:21;95738.06;;;14.96;55.30
73674;BME280;61975;48.660;10.164;2023-06-04T06:01:47;95735.97;;;15.07;54.77
73674;BME280;61975;48.660;10.164;2023-06-04T06:04:14;95732.31;;;15.17;54.52
73674;BME280;61975;48.660;10.164;2023-06-04T06:06:39;95738.66;;;15.24;54.49
73674;BME280;61975;48.660;10.164;2023-06-04T06:09:05;95741.38;;;15.35;54.19
73674;BME280;61975;48.660;10.164;2023-06-04T06:11:30;95743.72;;;15.43;54.00
73674;BME280;61975;48.660;10.164;2023-06-04T06:13:56;95747.28;;;15.51;53.60
73674;BME280;61975;48.660;10.164;2023-06-04T06:16:21;95745.97;;;15.62;53.86
73674;BME280;61975;48.660;10.164;2023-06-04T06:18:47;95751.53;;;15.69;54.06
73674;BME280;61975;48.660;10.164;2023-06-04T06:21:12;95749.81;;;15.79;53.28
73674;BME280;61975;48.660;10.164;2023-06-04T06:23:37;95743.31;;;15.89;53.09
73674;BME280;61975;48.660;10.164;2023-06-04T06:26:03;95749.63;;;16.00;52.62
73674;BME280;61975;48.660;10.164;2023-06-04T06:28:33;95749.53;;;16.10;52.25
73674;BME280;61975;48.660;10.164;2023-06-04T06:30:58;95754.66;;;16.15;51.32
73674;BME280;61975;48.660;10.164;2023-06-04T06:33:24;95757.00;;;16.20;50.30
73674;BME280;61975;48.660;10.164;2023-06-04T06:35:49;95752.56;;;16.23;50.06
73674;BME280;61975;48.660;10.164;2023-06-04T06:38:15;95760.44;;;16.35;50.14
73674;BME280;61975;48.660;10.164;2023-06-04T06:40:41;95764.28;;;16.52;49.74
73674;BME280;61975;48.660;10.164;2023-06-04T06:43:06;95762.50;;;16.65;49.81
73674;BME280;61975;48.660;10.164;2023-06-04T06:45:31;95750.47;;;16.68;49.37
73674;BME280;61975;48.660;10.164;2023-06-04T06:47:57;95754.25;;;16.84;49.52
73674;BME280;61975;48.660;10.164;2023-06-04T06:50:22;95757.31;;;16.97;48.99
73674;BME280;61975;48.660;10.164;2023-06-04T06:52:48;95764.16;;;16.92;48.71
73674;BME280;61975;48.660;10.164;2023-06-04T06:55:13;95756.63;;;16.86;48.54
73674;BME280;61975;48.660;10.164;2023-06-04T06:57:38;95762.09;;;16.96;48.25
73674;BME280;61975;48.660;10.164;2023-06-04T07:00:05;95754.31;;;17.11;48.09
73674;BME280;61975;48.660;10.164;2023-06-04T07:02:31;95761.50;;;17.12;47.34
73674;BME280;61975;48.660;10.164;2023-06-04T07:04:56;95761.41;;;17.15;47.50
73674;BME280;61975;48.660;10.164;2023-06-04T07:07:22;95754.34;;;17.07;47.91
73674;BME280;61975;48.660;10.164;2023-06-04T07:09:47;95760.25;;;17.13;48.23
73674;BME280;61975;48.660;10.164;2023-06-04T07:12:13;95759.28;;;17.26;48.28
73674;BME280;61975;48.660;10.164;2023-06-04T07:14:38;95760.69;;;17.38;48.55
73674;BME280;61975;48.660;10.164;2023-06-04T07:17:04;95756.69;;;17.39;48.19
73674;BME280;61975;48.660;10.164;2023-06-04T07:19:29;95766.91;;;17.52;47.96
73674;BME280;61975;48.660;10.164;2023-06-04T07:21:55;95768.03;;;17.58;47.32
73674;BME280;61975;48.660;10.164;2023-06-04T07:24:23;95766.75;;;17.63;47.73
73674;BME280;61975;48.660;10.164;2023-06-04T07:26:48;95765.22;;;17.58;48.11
73674;BME280;61975;48.660;10.164;2023-06-04T07:29:13;95769.13;;;17.64;47.71
73674;BME280;61975;48.660;10.164;2023-06-04T07:31:39;95763.75;;;17.73;46.74
73674;BME280;61975;48.660;10.164;2023-06-04T07:34:04;95764.44;;;17.81;46.58
73674;BME280;61975;48.660;10.164;2023-06-04T07:36:30;95771.50;;;17.89;46.84
73674;BME280;61975;48.660;10.164;2023-06-04T07:38:56;95762.63;;;17.94;47.34
73674;BME280;61975;48.660;10.164;2023-06-04T07:41:22;95767.81;;;17.95;46.37
73674;BME280;61975;48.660;10.164;2023-06-04T07:43:47;95759.72;;;17.97;46.73
73674;BME280;61975;48.660;10.164;2023-06-04T07:46:12;95760.53;;;17.98;46.69
73674;BME280;61975;48.660;10.164;2023-06-04T07:48:38;95766.03;;;18.05;47.19
73674;BME280;61975;48.660;10.164;2023-06-04T07:51:03;95761.81;;;18.16;46.01
73674;BME280;61975;48.660;10.164;2023-06-04T07:53:30;95760.75;;;18.30;46.14
73674;BME280;61975;48.660;10.164;2023-06-04T07:55:56;95762.22;;;18.38;46.23
73674;BME280;61975;48.660;10.164;2023-06-04T07:58:22;95759.34;;;18.41;46.44
73674;BME280;61975;48.660;10.164;2023-06-04T08:00:48;95754.38;;;18.49;46.98
73674;BME280;61975;48.660;10.164;2023-06-04T08:03:13;95758.63;;;18.57;46.28
73674;BME280;61975;48.660;10.164;2023-06-04T08:05:40;95752.50;;;18.62;45.49
73674;BME280;61975;48.660;10.164;2023-06-04T08:08:06;95746.44;;;18.63;46.23
73674;BME280;61975;48.660;10.164;2023-06-04T08:10:31;95753.06;;;18.73;46.35
73674;BME280;61975;48.660;10.164;2023-06-04T08:12:57;95742.47;;;18.80;46.69
73674;BME280;61975;48.660;10.164;2023-06-04T08:15:22;95746.72;;;18.69;46.37
73674;BME280;61975;48.660;10.164;2023-06-04T08:17:48;95740.81;;;18.83;46.50
73674;BME280;61975;48.660;10.164;2023-06-04T08:20:14;95736.13;;;18.76;46.10
73674;BME280;61975;48.660;10.164;2023-06-04T08:22:40;95736.25;;;18.89;46.01
73674;BME280;61975;48.660;10.164;2023-06-04T08:25:06;95740.75;;;18.86;46.62
73674;BME280;61975;48.660;10.164;2023-06-04T08:27:34;95739.94;;;18.86;46.36
73674;BME280;61975;48.660;10.164;2023-06-04T08:29:59;95743.91;;;18.88;46.72
73674;BME280;61975;48.660;10.164;2023-06-04T08:32:25;95741.75;;;18.96;46.43
73674;BME280;61975;48.660;10.164;2023-06-04T08:34:50;95737.81;;;19.09;46.88
73674;BME280;61975;48.660;10.164;2023-06-04T08:37:17;95738.13;;;19.15;46.54
73674;BME280;61975;48.660;10.164;2023-06-04T08:39:42;95745.53;;;19.25;46.70
73674;BME280;61975;48.660;10.164;2023-06-04T08:42:15;95753.81;;;19.32;46.87
73674;BME280;61975;48.660;10.164;2023-06-04T08:44:46;95744.31;;;19.42;46.63
73674;BME280;61975;48.660;10.164;2023-06-04T08:47:15;95748.16;;;19.52;46.27
73674;BME280;61975;48.660;10.164;2023-06-04T08:49:44;95750.69;;;19.62;45.91
73674;BME280;61975;48.660;10.164;2023-06-04T08:52:12;95750.88;;;19.71;45.93
73674;BME280;61975;48.660;10.164;2023-06-04T08:54:37;95742.25;;;19.78;45.28
73674;BME280;61975;48.660;10.164;2023-06-04T08:57:03;95744.91;;;19.85;45.62
73674;BME280;61975;48.660;10.164;2023-06-04T08:59:29;95752.03;;;19.90;45.22
73674;BME280;61975;48.660;10.164;2023-06-04T09:01:55;95752.53;;;19.85;45.01
73674;BME280;61975;48.660;10.164;2023-06-04T09:04:21;95752.72;;;19.94;43.94
73674;BME280;61975;48.660;10.164;2023-06-04T09:06:47;95750.88;;;19.87;44.44
73674;BME280;61975;48.660;10.164;2023-06-04T09:09:14;95748.59;;;19.98;44.67
73674;BME280;61975;48.660;10.164;2023-06-04T09:11:54;95752.19;;;19.99;43.96
73674;BME280;61975;48.660;10.164;2023-06-04T09:14:21;95750.88;;;20.03;44.13
73674;BME280;61975;48.660;10.164;2023-06-04T09:16:51;95748.25;;;20.12;44.63
73674;BME280;61975;48.660;10.164;2023-06-04T09:19:17;95746.03;;;20.20;44.37
73674;BME280;61975;48.660;10.164;2023-06-04T09:21:54;95739.06;;;20.24;44.10
73674;BME280;61975;48.660;10.164;2023-06-04T09:24:21;95739.41;;;20.26;44.49
73674;BME280;61975;48.660;10.164;2023-06-04T09:26:46;95740.44;;;20.32;44.24
73674;BME280;61975;48.660;10.164;2023-06-04T09:29:12;95740.13;;;20.30;43.38
73674;BME280;61975;48.660;10.164;2023-06-04T09:31:38;95744.00;;;20.36;43.86
73674;BME280;61975;48.660;10.164;2023-06-04T09:34:05;95745.66;;;20.34;42.77
73674;BME280;61975;48.660;10.164;2023-06-04T09:36:32;95741.50;;;20.38;43.78
73674;BME280;61975;48.660;10.164;2023-06-04T09:38:57;95745.38;;;20.44;42.80
73674;BME280;61975;48.660;10.164;2023-06-04T09:41:23;95749.97;;;20.38;42.09
73674;BME280;61975;48.660;10.164;2023-06-04T09:43:49;95740.63;;;20.41;42.34
73674;BME280;61975;48.660;10.164;2023-06-04T09:46:16;95739.31;;;20.58;42.29
73674;BME280;61975;48.660;10.164;2023-06-04T09:48:43;95736.25;;;20.53;42.23
73674;BME280;61975;48.660;10.164;2023-06-04T09:51:13;95735.63;;;20.61;42.71
73674;BME280;61975;48.660;10.164;2023-06-04T09:53:54;95740.38;;;20.64;41.83
73674;BME280;61975;48.660;10.164;2023-06-04T09:56:21;95739.28;;;20.74;41.53
73674;BME280;61975;48.660;10.164;2023-06-04T09:58:49;95726.97;;;20.68;41.62
73674;BME280;61975;48.660;10.164;2023-06-04T10:01:14;95734.66;;;20.80;41.40
73674;BME280;61975;48.660;10.164;2023-06-04T10:03:43;95731.06;;;20.80;41.17
73674;BME280;61975;48.660;10.164;2023-06-04T10:06:14;95725.66;;;20.85;42.02
73674;BME280;61975;48.660;10.164;2023-06-04T10:08:45;95729.00;;;20.80;41.80
73674;BME280;61975;48.660;10.164;2023-06-04T10:11:11;95731.50;;;20.78;42.48
73674;BME280;61975;48.660;10.164;2023-06-04T10:14:38;95727.44;;;20.79;41.40
73674;BME280;61975;48.660;10.164;2023-06-04T10:17:02;95736.25;;;20.81;41.75
73674;BME280;61975;48.660;10.164;2023-06-04T10:19:28;95728.81;;;20.87;41.09
73674;BME280;61975;48.660;10.164;2023-06-04T10:21:56;95735.13;;;20.91;40.73
73674;BME280;61975;48.660;10.164;2023-06-04T10:24:21;95741.84;;;20.97;39.59
73674;BME280;61975;48.660;10.164;2023-06-04T10:26:49;95738.38;;;21.18;40.63
73674;BME280;61975;48.660;10.164;2023-06-04T10:29:18;95734.66;;;21.34;40.28
73674;BME280;61975;48.660;10.164;2023-06-04T10:31:43;95738.41;;;21.43;39.17
73674;BME280;61975;48.660;10.164;2023-06-04T10:34:10;95730.72;;;21.56;39.83
73674;BME280;61975;48.660;10.164;2023-06-04T10:36:43;95733.53;;;21.69;39.31
73674;BME280;61975;48.660;10.164;2023-06-04T10:39:10;95730.19;;;21.62;38.45
73674;BME280;61975;48.660;10.164;2023-06-04T10:41:36;95730.94;;;21.62;38.89
73674;BME280;61975;48.660;10.164;2023-06-04T10:44:02;95733.31;;;21.63;38.52
73674;BME280;61975;48.660;10.164;2023-06-04T10:46:40;95722.94;;;21.73;39.07
73674;BME280;61975;48.660;10.164;2023-06-04T10:49:07;95731.06;;;21.84;38.45
73674;BME280;61975;48.660;10.164;2023-06-04T10:51:34;95724.72;;;21.92;38.49
73674;BME280;61975;48.660;10.164;2023-06-04T10:54:01;95723.38;;;21.97;38.08
73674;BME280;61975;48.660;10.164;2023-06-04T10:56:29;95726.66;;;21.95;38.14
73674;BME280;61975;48.660;10.164;2023-06-04T10:58:55;95723.69;;;21.99;38.25
73674;BME280;61975;48.660;10.164;2023-06-04T11:01:27;95721.78;;;21.96;37.42
73674;BME280;61975;48.660;10.164;2023-06-04T11:03:54;95723.84;;;21.95;38.70
73674;BME280;61975;48.660;10.164;2023-06-04T11:06:21;95722.72;;;21.93;38.63
73674;BME280;61975;48.660;10.164;2023-06-04T11:08:47;95724.97;;;21.85;39.24
73674;BME280;61975;48.660;10.164;2023-06-04T11:11:14;95726.09;;;21.88;39.01
73674;BME280;61975;48.660;10.164;2023-06-04T11:13:40;95730.38;;;21.92;39.07
73674;BME280;61975;48.660;10.164;2023-06-04T11:16:20;95722.56;;;21.96;38.13
73674;BME280;61975;48.660;10.164;2023-06-04T11:18:57;95731.63;;;22.04;38.88
73674;BME280;61975;48.660;10.164;2023-06-04T11:21:24;95720.81;;;22.24;38.83
73674;BME280;61975;48.660;10.164;2023-06-04T11:23:55;95722.56;;;22.43;37.87
73674;BME280;61975;48.660;10.164;2023-06-04T11:26:21;95719.91;;;22.61;38.71
73674;BME280;61975;48.660;10.164;2023-06-04T11:28:49;95715.38;;;22.85;38.63
73674;BME280;61975;48.660;10.164;2023-06-04T11:31:15;95706.06;;;23.06;38.17
73674;BME280;61975;48.660;10.164;2023-06-04T11:33:43;95713.06;;;23.14;37.67
73674;BME280;61975;48.660;10.164;2023-06-04T11:36:09;95710.25;;;23.14;37.45
73674;BME280;61975;48.660;10.164;2023-06-04T11:38:35;95720.56;;;23.08;37.44
73674;BME280;61975;48.660;10.164;2023-06-04T11:41:01;95719.94;;;23.04;37.53
73674;BME280;61975;48.660;10.164;2023-06-04T11:43:28;95715.66;;;22.99;36.96
73674;BME280;61975;48.660;10.164;2023-06-04T11:45:54;95710.44;;;22.76;37.60
73674;BME280;61975;48.660;10.164;2023-06-04T11:48:20;95718.47;;;22.78;37.79
73674;BME280;61975;48.660;10.164;2023-06-04T11:50:46;95719.13;;;22.82;37.63
73674;BME280;61975;48.660;10.164;2023-06-04T11:53:11;95721.50;;;22.83;37.90
73674;BME280;61975;48.660;10.164;2023-06-04T11:55:38;95719.59;;;22.80;37.32
73674;BME280;61975;48.660;10.164;2023-06-04T11:58:04;95716.44;;;22.78;36.90
73674;BME280;61975;48.660;10.164;2023-06-04T12:00:29;95711.38;;;22.95;36.50
73674;BME280;61975;48.660;10.164;2023-06-04T12:02:55;95709.91;;;23.12;35.73
73674;BME280;61975;48.660;10.164;2023-06-04T12:05:23;95709.16;;;23.20;35.14
73674;BME280;61975;48.660;10.164;2023-06-04T12:08:07;95702.00;;;23.28;34.33
73674;BME280;61975;48.660;10.164;2023-06-04T12:10:41;95695.00;;;23.42;35.55
73674;BME280;61975;48.660;10.164;2023-06-04T12:13:08;95685.00;;;23.68;35.74
73674;BME280;61975;48.660;10.164;2023-06-04T12:15:33;95686.81;;;23.92;35.74
73674;BME280;61975;48.660;10.164;2023-06-04T12:17:59;95709.53;;;24.01;34.87
73674;BME280;61975;48.660;10.164;2023-06-04T12:20:38;95706.22;;;24.03;33.73
73674;BME280;61975;48.660;10.164;2023-06-04T12:23:05;95710.63;;;23.95;33.13
73674;BME280;61975;48.660;10.164;2023-06-04T12:25:32;95704.59;;;23.84;33.38
73674;BME280;61975;48.660;10.164;2023-06-04T12:27:57;95707.72;;;23.77;33.84
73674;BME280;61975;48.660;10.164;2023-06-04T12:30:23;95706.16;;;23.76;34.29
73674;BME280;61975;48.660;10.164;2023-06-04T12:32:49;95697.34;;;23.92;34.15
73674;BME280;61975;48.660;10.164;2023-06-04T12:35:16;95689.09;;;24.07;34.26
73674;BME280;61975;48.660;10.164;2023-06-04T12:37:41;95698.84;;;24.06;34.43
73674;BME280;61975;48.660;10.164;2023-06-04T12:40:07;95714.63;;;24.16;34.85
73674;BME280;61975;48.660;10.164;2023-06-04T12:42:34;95713.84;;;24.15;34.05
73674;BME280;61975;48.660;10.164;2023-06-04T12:44:59;95710.06;;;24.27;33.63
73674;BME280;61975;48.660;10.164;2023-06-04T12:47:25;95703.63;;;24.27;33.98
73674;BME280;61975;48.660;10.164;2023-06-04T12:49:50;95699.84;;;24.39;34.35
73674;BME280;61975;48.660;10.164;2023-06-04T12:52:17;95702.38;;;24.55;33.55